Time;durP1;ratioP1;P1;durP2;ratioP2;P2;SDS_P1;SDS_P2;PMS_P1;PMS_P2;Temp;Humidity;BMP_temperature;BMP_pressure;BME280_temperature;BME280_humidity;BME280_pressure;Samples;Min_cycle;Max_cycle;Signal;HPM_P1;HPM_P2
2022/01/03 00:01:26;;;;;;;69.75;49.58;;;0.50;90.00;;;;;;6098122;23;20391;-79
2022/01/03 00:03:55;;;;;;;63.25;44.85;;;0.40;89.90;;;;;;6097065;23;20368;-79
2022/01/03 00:06:22;;;;;;;70.00;49.43;;;0.40;90.00;;;;;;6098317;23;20388;-79
2022/01/03 00:08:49;;;;;;;65.97;47.13;;;0.40;89.90;;;;;;6096640;23;20388;-79
2022/01/03 00:11:19;;;;;;;68.82;50.10;;;0.40;89.90;;;;;;6096807;23;20399;-79
2022/01/03 00:13:48;;;;;;;74.28;51.38;;;0.40;90.00;;;;;;6097018;23;20683;-81
2022/01/03 00:16:16;;;;;;;68.18;48.75;;;0.40;90.10;;;;;;6097927;23;20737;-79
2022/01/03 00:18:43;;;;;;;85.68;57.35;;;0.40;90.10;;;;;;6097004;23;20375;-79
2022/01/03 00:21:15;;;;;;;75.20;51.65;;;0.40;91.10;;;;;;6097430;23;20744;-78
2022/01/03 00:24:09;;;;;;;64.68;45.88;;;0.20;90.70;;;;;;6097150;23;20411;-79
2022/01/03 00:26:38;;;;;;;69.20;46.23;;;0.10;90.80;;;;;;6093796;23;20899;-81
2022/01/03 00:29:19;;;;;;;68.53;47.67;;;0.20;90.70;;;;;;6097832;23;20423;-78
2022/01/03 00:31:46;;;;;;;62.37;43.83;;;0.00;90.80;;;;;;6096763;23;20418;-79
2022/01/03 00:34:14;;;;;;;57.80;42.28;;;0.00;90.70;;;;;;6098171;23;20883;-79
2022/01/03 00:36:45;;;;;;;61.15;43.17;;;0.00;90.60;;;;;;6081397;23;20387;-80
2022/01/03 00:39:14;;;;;;;59.85;43.47;;;0.00;90.30;;;;;;6076662;23;20966;-79
2022/01/03 00:41:43;;;;;;;64.10;44.20;;;0.00;90.20;;;;;;6122016;23;20878;-79
2022/01/03 00:44:10;;;;;;;55.20;40.40;;;-0.10;90.00;;;;;;6098160;23;20414;-79
2022/01/03 00:46:38;;;;;;;55.65;39.53;;;-0.20;90.20;;;;;;6096286;23;20403;-79
2022/01/03 00:49:05;;;;;;;56.38;40.13;;;-0.20;90.50;;;;;;6098035;23;20380;-79
2022/01/03 00:51:35;;;;;;;52.08;36.60;;;-0.20;90.00;;;;;;6098019;23;20471;-79
2022/01/03 00:54:03;;;;;;;57.72;39.80;;;-0.20;90.10;;;;;;6097074;23;20387;-78
2022/01/03 00:56:46;;;;;;;62.65;43.47;;;-0.20;90.20;;;;;;6097755;23;20372;-79
2022/01/03 00:59:25;;;;;;;62.55;42.15;;;-0.10;90.60;;;;;;6097443;23;20367;-79
2022/01/03 01:01:55;;;;;;;68.00;44.28;;;-0.10;90.40;;;;;;6122248;23;20757;-79
2022/01/03 01:04:23;;;;;;;70.57;48.05;;;-0.10;90.50;;;;;;6097361;23;20376;-79
2022/01/03 01:06:56;;;;;;;72.17;48.23;;;-0.10;90.60;;;;;;6097420;23;20383;-81
2022/01/03 01:09:26;;;;;;;65.78;44.33;;;-0.10;91.30;;;;;;6097442;23;20439;-81
2022/01/03 01:11:56;;;;;;;62.35;41.75;;;-0.20;91.30;;;;;;6096870;23;20384;-78
2022/01/03 01:14:26;;;;;;;63.13;44.80;;;-0.20;91.10;;;;;;6097252;23;20384;-81
2022/01/03 01:16:54;;;;;;;64.22;43.97;;;-0.20;91.00;;;;;;6097020;23;20400;-79
2022/01/03 01:19:22;;;;;;;70.38;47.42;;;-0.10;91.10;;;;;;6122823;23;20375;-79
2022/01/03 01:21:50;;;;;;;60.45;41.78;;;-0.20;91.00;;;;;;6097870;23;20387;-79
2022/01/03 01:24:21;;;;;;;64.90;44.05;;;-0.20;91.00;;;;;;6123039;23;20375;-81
2022/01/03 01:29:38;;;;;;;69.88;48.67;;;-0.10;91.40;;;;;;6124450;23;20373;-79
2022/01/03 01:32:13;;;;;;;70.38;49.40;;;0.00;91.70;;;;;;6099084;23;20394;-79
2022/01/03 01:34:43;;;;;;;69.03;48.17;;;0.00;91.60;;;;;;6098872;23;20440;-78
2022/01/03 01:37:11;;;;;;;68.63;47.30;;;0.00;91.60;;;;;;6099322;23;20380;-81
2022/01/03 01:39:40;;;;;;;70.13;48.08;;;0.00;91.60;;;;;;6098497;23;20742;-79
2022/01/03 01:42:07;;;;;;;73.38;48.92;;;0.00;91.70;;;;;;6098917;23;20375;-79
2022/01/03 01:44:37;;;;;;;63.55;45.65;;;0.00;91.60;;;;;;6098094;23;20384;-79
2022/01/03 01:47:06;;;;;;;67.93;46.28;;;0.00;91.50;;;;;;6076435;23;20380;-79
2022/01/03 01:49:47;;;;;;;68.70;46.45;;;0.10;91.50;;;;;;6098257;23;20383;-81
2022/01/03 01:52:22;;;;;;;69.82;46.65;;;0.00;91.30;;;;;;6099544;23;20446;-78
2022/01/03 01:55:03;;;;;;;62.90;44.33;;;0.00;91.30;;;;;;6068058;23;20374;-78
2022/01/03 01:57:46;;;;;;;64.53;46.20;;;-0.10;91.20;;;;;;6093498;23;20387;-79
2022/01/03 02:00:15;;;;;;;64.03;44.40;;;-0.30;91.30;;;;;;6098898;23;20384;-79
2022/01/03 02:03:02;;;;;;;60.88;42.80;;;-0.30;91.70;;;;;;6097798;23;20856;-79
2022/01/03 02:05:50;;;;;;;69.10;48.40;;;-0.30;91.60;;;;;;6098328;23;20379;-80
2022/01/03 02:08:32;;;;;;;60.50;41.13;;;-0.30;91.60;;;;;;6098743;23;20380;-79
2022/01/03 02:11:20;;;;;;;59.85;42.47;;;-0.40;91.60;;;;;;6098715;23;20376;-79
2022/01/03 02:13:48;;;;;;;54.72;40.10;;;-0.40;91.40;;;;;;6097810;23;20383;-78
2022/01/03 02:16:16;;;;;;;63.35;43.58;;;-0.50;91.20;;;;;;6099168;23;20384;-81
2022/01/03 02:18:43;;;;;;;61.30;43.90;;;-0.40;91.20;;;;;;6097787;23;20383;-79
2022/01/03 02:21:14;;;;;;;61.42;43.03;;;-0.40;91.10;;;;;;6099153;23;20380;-78
2022/01/03 02:23:41;;;;;;;58.47;40.67;;;-0.50;91.20;;;;;;6097892;23;20860;-79
2022/01/03 02:26:08;;;;;;;60.47;41.40;;;-0.50;91.20;;;;;;6098901;23;20766;-78
2022/01/03 02:28:35;;;;;;;60.70;42.90;;;-0.40;91.40;;;;;;6098696;23;20379;-79
2022/01/03 02:31:01;;;;;;;59.97;42.23;;;-0.40;91.50;;;;;;6096450;23;20365;-81
2022/01/03 02:33:28;;;;;;;60.97;41.35;;;-0.30;91.60;;;;;;6098856;23;20857;-81
2022/01/03 02:35:56;;;;;;;62.63;43.27;;;-0.30;91.70;;;;;;6097730;23;20387;-78
2022/01/03 02:38:24;;;;;;;56.97;42.05;;;-0.30;91.70;;;;;;6098369;23;20388;-78
2022/01/03 02:40:51;;;;;;;62.33;43.70;;;-0.30;91.70;;;;;;6097713;23;20458;-78
2022/01/03 02:43:18;;;;;;;59.70;42.90;;;-0.30;91.70;;;;;;6124636;23;20383;-78
2022/01/03 02:45:45;;;;;;;65.55;43.67;;;-0.20;91.80;;;;;;6073700;23;20395;-81
2022/01/03 02:48:12;;;;;;;66.87;44.57;;;-0.20;91.80;;;;;;6098167;23;20396;-79
2022/01/03 02:50:41;;;;;;;62.97;43.90;;;-0.20;91.60;;;;;;6097470;23;20458;-79
2022/01/03 02:53:09;;;;;;;65.93;43.63;;;-0.20;91.60;;;;;;6098651;23;20389;-78
2022/01/03 02:55:36;;;;;;;60.53;41.25;;;-0.20;91.50;;;;;;6097681;23;20757;-79
2022/01/03 02:58:07;;;;;;;59.78;40.53;;;-0.30;91.20;;;;;;6098124;23;20375;-81
2022/01/03 03:00:44;;;;;;;59.45;40.47;;;-0.40;91.30;;;;;;6075633;23;20384;-77
2022/01/03 03:03:13;;;;;;;59.78;40.38;;;-0.40;91.30;;;;;;6097869;23;20371;-79
2022/01/03 03:05:40;;;;;;;57.13;38.63;;;-0.40;91.30;;;;;;6098789;23;20380;-79
2022/01/03 03:08:07;;;;;;;59.20;40.95;;;-0.50;91.30;;;;;;6097404;23;20384;-79
2022/01/03 03:10:35;;;;;;;56.80;38.95;;;-0.50;91.30;;;;;;6098690;23;20387;-78
2022/01/03 03:13:02;;;;;;;59.15;38.72;;;-0.50;91.30;;;;;;6122910;23;20398;-79
2022/01/03 03:15:30;;;;;;;66.05;43.38;;;-0.50;91.30;;;;;;6098603;23;20407;-78
2022/01/03 03:17:57;;;;;;;57.42;38.35;;;-0.50;91.40;;;;;;6097484;23;20387;-79
2022/01/03 03:20:27;;;;;;;52.90;36.95;;;-0.80;91.20;;;;;;6098127;23;20381;-78
2022/01/03 03:22:55;;;;;;;56.88;36.47;;;-0.80;91.40;;;;;;6096167;23;20426;-79
2022/01/03 03:25:31;;;;;;;51.20;35.42;;;-0.80;91.40;;;;;;6098139;23;20371;-78
2022/01/03 03:28:01;;;;;;;54.55;36.28;;;-0.70;91.40;;;;;;6098070;23;20376;-79
2022/01/03 03:30:36;;;;;;;59.90;39.43;;;-0.80;91.10;;;;;;6098132;23;20895;-79
2022/01/03 03:33:12;;;;;;;50.35;35.38;;;-0.70;91.40;;;;;;6097496;23;20388;-79
2022/01/03 03:35:40;;;;;;;57.70;37.28;;;-0.70;91.50;;;;;;6123757;23;20753;-79
2022/01/03 03:38:07;;;;;;;61.75;40.65;;;-0.70;91.40;;;;;;6097982;23;20380;-81
2022/01/03 03:40:34;;;;;;;51.03;34.83;;;-0.80;91.80;;;;;;6098217;23;20856;-81
2022/01/03 03:43:02;;;;;;;51.17;34.72;;;-0.90;91.70;;;;;;6122859;23;20379;-81
2022/01/03 03:45:32;;;;;;;49.75;34.35;;;-0.90;91.50;;;;;;6098427;23;20439;-78
2022/01/03 03:47:59;;;;;;;55.50;37.10;;;-0.80;91.40;;;;;;6096555;23;20384;-81
2022/01/03 03:50:26;;;;;;;61.42;40.63;;;-0.70;91.30;;;;;;6098213;23;20856;-79
2022/01/03 03:52:53;;;;;;;64.35;44.55;;;-0.70;91.70;;;;;;6097777;23;20388;-79
2022/01/03 03:55:21;;;;;;;61.92;41.85;;;-0.60;91.70;;;;;;6097991;23;20426;-79
2022/01/03 03:57:47;;;;;;;60.63;40.47;;;-0.70;91.60;;;;;;6097485;23;20857;-79
2022/01/03 04:00:17;;;;;;;56.63;38.60;;;-0.80;91.60;;;;;;6096665;23;20427;-79
2022/01/03 04:02:45;;;;;;;60.42;39.08;;;-0.80;91.60;;;;;;6098027;23;20914;-78
2022/01/03 04:05:12;;;;;;;60.80;39.10;;;-0.80;91.60;;;;;;6097544;23;20372;-78
2022/01/03 04:07:40;;;;;;;58.83;38.72;;;-0.80;91.70;;;;;;6097755;23;20390;-79
2022/01/03 04:10:08;;;;;;;55.63;38.70;;;-0.80;91.70;;;;;;6096941;23;20878;-81
2022/01/03 04:12:35;;;;;;;55.80;38.53;;;-0.80;91.70;;;;;;6097949;23;20929;-79
2022/01/03 04:15:04;;;;;;;63.38;43.20;;;-0.70;91.90;;;;;;6122638;23;20379;-79
2022/01/03 04:17:31;;;;;;;61.13;39.90;;;-0.80;91.70;;;;;;6097669;23;20452;-81
2022/01/03 04:19:58;;;;;;;57.92;39.00;;;-1.00;91.70;;;;;;6096907;23;20380;-78
2022/01/03 04:22:25;;;;;;;58.08;40.13;;;-0.90;91.80;;;;;;6123214;23;20380;-81
2022/01/03 04:24:52;;;;;;;56.90;39.42;;;-1.00;91.60;;;;;;6121880;23;20432;-81
2022/01/03 04:27:19;;;;;;;54.50;37.80;;;-1.00;91.70;;;;;;6098180;23;20371;-78
2022/01/03 04:29:46;;;;;;;55.83;38.65;;;-1.00;91.60;;;;;;6097803;23;20383;-81
2022/01/03 04:32:13;;;;;;;58.58;40.13;;;-0.90;91.60;;;;;;6096819;23;20378;-80
2022/01/03 04:34:40;;;;;;;64.53;44.00;;;-0.90;91.50;;;;;;6123430;23;20450;-78
2022/01/03 04:37:09;;;;;;;61.30;40.45;;;-1.00;92.20;;;;;;6096707;23;20380;-81
2022/01/03 04:39:36;;;;;;;58.40;41.45;;;-1.00;92.10;;;;;;6097575;23;20376;-78
2022/01/03 04:42:04;;;;;;;59.53;40.53;;;-1.00;92.10;;;;;;6096684;23;20372;-81
2022/01/03 04:44:31;;;;;;;62.33;42.17;;;-0.90;92.30;;;;;;6097469;23;20749;-79
2022/01/03 04:46:59;;;;;;;60.80;42.00;;;-0.70;92.80;;;;;;6122103;23;20376;-79
2022/01/03 04:49:26;;;;;;;59.45;41.58;;;-0.50;92.90;;;;;;6097818;23;20371;-78
2022/01/03 04:51:53;;;;;;;53.47;39.00;;;-0.50;92.70;;;;;;6097442;23;20442;-77
2022/01/03 04:54:20;;;;;;;56.63;39.38;;;-0.50;92.60;;;;;;6122780;23;20426;-78
2022/01/03 04:56:47;;;;;;;55.13;37.97;;;-0.50;92.60;;;;;;6097479;23;20389;-78
2022/01/03 04:59:14;;;;;;;54.83;36.90;;;-0.50;92.60;;;;;;6097566;23;20379;-81
2022/01/03 05:01:41;;;;;;;54.22;37.03;;;-0.50;92.60;;;;;;6099613;23;20387;-81
2022/01/03 05:04:08;;;;;;;55.70;36.97;;;-0.50;92.50;;;;;;6098576;23;20450;-81
2022/01/03 05:06:35;;;;;;;53.47;36.20;;;-0.50;92.50;;;;;;6099788;23;20907;-78
2022/01/03 05:09:02;;;;;;;52.13;34.47;;;-0.60;92.50;;;;;;6098249;23;20434;-79
2022/01/03 05:11:29;;;;;;;53.42;37.05;;;-0.60;92.60;;;;;;6125514;23;20872;-79
2022/01/03 05:13:56;;;;;;;50.95;36.35;;;-0.60;92.50;;;;;;6099274;23;20450;-81
2022/01/03 05:16:23;;;;;;;53.47;37.75;;;-0.60;92.30;;;;;;6099051;23;20434;-79
2022/01/03 05:18:50;;;;;;;56.58;39.25;;;-0.70;92.30;;;;;;6099443;23;20686;-79
2022/01/03 05:21:17;;;;;;;50.57;36.03;;;-0.60;92.20;;;;;;6098569;23;20409;-78
2022/01/03 05:23:44;;;;;;;54.33;36.22;;;-0.60;92.20;;;;;;6099559;23;20868;-78
2022/01/03 05:26:12;;;;;;;52.58;37.33;;;-0.70;92.20;;;;;;6098255;23;20379;-82
2022/01/03 05:28:40;;;;;;;53.10;38.10;;;-0.70;92.20;;;;;;6099521;23;20379;-81
2022/01/03 05:31:08;;;;;;;58.88;39.95;;;-0.70;92.10;;;;;;6098733;23;20434;-78
2022/01/03 05:33:35;;;;;;;55.23;38.47;;;-0.70;92.10;;;;;;6098719;23;20383;-79
2022/01/03 05:36:03;;;;;;;56.58;40.45;;;-0.70;92.10;;;;;;6098625;23;20384;-81
2022/01/03 05:38:30;;;;;;;55.58;39.17;;;-0.70;92.20;;;;;;6099235;23;20390;-79
2022/01/03 05:40:57;;;;;;;51.83;35.95;;;-0.70;92.20;;;;;;6125042;23;20387;-78
2022/01/03 05:43:24;;;;;;;59.88;41.03;;;-0.60;92.20;;;;;;6098066;23;20368;-80
2022/01/03 05:45:51;;;;;;;52.45;37.60;;;-0.70;92.40;;;;;;6099541;23;20407;-78
2022/01/03 05:48:18;;;;;;;50.03;35.87;;;-0.70;92.30;;;;;;6113652;23;20413;-79
2022/01/03 05:50:45;;;;;;;52.63;36.38;;;-0.80;92.30;;;;;;6094229;23;20897;-81
2022/01/03 05:53:12;;;;;;;50.87;36.40;;;-0.70;92.10;;;;;;6093635;23;20959;-79
2022/01/03 05:55:39;;;;;;;51.92;36.13;;;-0.80;91.90;;;;;;6070085;23;20405;-78
2022/01/03 05:58:06;;;;;;;54.00;36.83;;;-0.80;92.00;;;;;;6094047;23;20882;-77
2022/01/03 06:00:33;;;;;;;51.40;35.85;;;-0.70;92.00;;;;;;6070026;23;20862;-79
2022/01/03 06:03:00;;;;;;;51.60;35.90;;;-0.70;92.00;;;;;;6070548;23;20698;-79
2022/01/03 06:05:42;;;;;;;51.80;38.10;;;-0.70;92.00;;;;;;6094700;23;20473;-79
2022/01/03 06:08:09;;;;;;;55.47;37.45;;;-0.70;92.10;;;;;;6067993;23;20468;-79
2022/01/03 06:10:40;;;;;;;54.28;37.38;;;-0.70;92.10;;;;;;6094860;23;20755;-78
2022/01/03 06:13:08;;;;;;;55.03;37.53;;;-0.70;92.10;;;;;;6068599;23;20448;-79
2022/01/03 06:15:39;;;;;;;54.80;37.05;;;-0.80;91.70;;;;;;6094238;23;20386;-79
2022/01/03 06:18:10;;;;;;;55.85;37.45;;;-0.90;91.80;;;;;;6069430;23;20439;-78
2022/01/03 06:20:42;;;;;;;47.58;33.55;;;-0.90;91.80;;;;;;6070289;23;20433;-80
2022/01/03 06:23:10;;;;;;;51.58;37.08;;;-0.90;91.90;;;;;;6069094;23;20762;-79
2022/01/03 06:25:38;;;;;;;51.97;35.58;;;-0.90;91.90;;;;;;6095208;23;20389;-78
2022/01/03 06:28:07;;;;;;;53.40;36.28;;;-0.90;91.90;;;;;;6068771;23;20413;-78
2022/01/03 06:30:40;;;;;;;53.90;35.80;;;-0.90;91.90;;;;;;6069296;23;20386;-80
2022/01/03 06:33:08;;;;;;;60.40;41.87;;;-0.90;91.80;;;;;;6093771;23;20403;-79
2022/01/03 06:35:36;;;;;;;59.57;41.33;;;-0.90;92.20;;;;;;6095051;23;20870;-79
2022/01/03 06:38:04;;;;;;;52.33;37.37;;;-1.00;92.10;;;;;;6069828;23;20386;-79
2022/01/03 06:40:31;;;;;;;52.83;36.58;;;-1.00;92.10;;;;;;6068751;23;20818;-80
2022/01/03 06:42:58;;;;;;;49.33;34.30;;;-1.00;92.00;;;;;;6068998;23;20441;-78
2022/01/03 06:45:25;;;;;;;50.93;36.47;;;-1.00;91.90;;;;;;6067921;23;20814;-80
2022/01/03 06:47:56;;;;;;;46.45;34.35;;;-1.00;91.80;;;;;;6093964;23;20390;-79
2022/01/03 06:50:23;;;;;;;50.55;34.95;;;-1.00;91.80;;;;;;6092146;23;20378;-78
2022/01/03 06:52:50;;;;;;;52.33;35.58;;;-1.00;91.80;;;;;;6069256;23;20692;-79
2022/01/03 06:55:17;;;;;;;52.97;36.95;;;-1.00;91.80;;;;;;6067938;23;20886;-78
2022/01/03 06:57:44;;;;;;;52.83;36.95;;;-1.00;91.70;;;;;;6069185;23;20437;-79
2022/01/03 07:00:12;;;;;;;55.83;37.58;;;-1.00;91.50;;;;;;6068298;23;20684;-79
2022/01/03 07:02:42;;;;;;;48.25;35.28;;;-1.00;91.50;;;;;;6094348;23;20847;-78
2022/01/03 07:05:11;;;;;;;48.50;34.97;;;-1.00;91.50;;;;;;6068250;23;20385;-80
2022/01/03 07:07:39;;;;;;;47.13;32.65;;;-1.00;91.30;;;;;;6068887;23;20441;-79
2022/01/03 07:10:08;;;;;;;44.17;31.13;;;-1.10;91.20;;;;;;6068707;23;20762;-79
2022/01/03 07:12:35;;;;;;;45.17;31.58;;;-1.10;91.10;;;;;;6068713;23;20873;-79
2022/01/03 07:20:33;;;;;;;46.30;32.60;;;-1.40;91.30;;;;;;6093018;23;20381;-77
2022/01/03 07:23:00;;;;;;;47.90;32.67;;;-1.30;91.40;;;;;;6092010;23;20426;-79
2022/01/03 07:25:27;;;;;;;45.17;31.83;;;-1.30;91.20;;;;;;6067724;23;20413;-80
2022/01/03 07:27:54;;;;;;;69.72;45.22;;;-1.40;91.30;;;;;;6093759;23;20857;-79
2022/01/03 07:30:21;;;;;;;73.35;48.45;;;-1.30;91.50;;;;;;6068719;23;20925;-79
2022/01/03 07:32:53;;;;;;;64.40;43.00;;;-1.30;91.80;;;;;;6068851;23;20464;-79
2022/01/03 07:35:20;;;;;;;65.28;43.13;;;-1.20;91.60;;;;;;6068922;23;20742;-79
2022/01/03 07:37:47;;;;;;;69.22;44.08;;;-1.20;91.80;;;;;;6067868;23;20965;-79
2022/01/03 07:40:14;;;;;;;64.25;43.20;;;-1.20;91.80;;;;;;6068711;23;20440;-78
2022/01/03 07:42:42;;;;;;;61.03;41.38;;;-1.20;91.60;;;;;;6092896;23;20859;-78
2022/01/03 07:45:10;;;;;;;57.97;37.50;;;-1.20;91.70;;;;;;6068203;23;20433;-79
2022/01/03 07:47:37;;;;;;;52.05;37.63;;;-1.20;91.70;;;;;;6067567;23;20380;-79
2022/01/03 07:50:06;;;;;;;53.33;35.80;;;-1.10;91.80;;;;;;6065514;23;20400;-78
2022/01/03 07:52:33;;;;;;;52.13;36.13;;;-1.10;92.00;;;;;;6067822;23;20373;-79
2022/01/03 07:55:01;;;;;;;63.60;45.03;;;-1.00;92.10;;;;;;6068317;23;20393;-78
2022/01/03 07:57:28;;;;;;;62.47;44.90;;;-0.90;92.20;;;;;;6068398;23;20858;-78
2022/01/03 07:59:55;;;;;;;61.42;44.03;;;-0.90;92.30;;;;;;6092731;23;20377;-78
2022/01/03 08:02:23;;;;;;;57.33;41.53;;;-0.70;92.40;;;;;;6092453;23;20952;-78
2022/01/03 08:04:50;;;;;;;52.13;35.65;;;-0.40;92.10;;;;;;6067523;23;20718;-77
2022/01/03 08:07:17;;;;;;;48.67;34.92;;;-0.10;91.60;;;;;;6093912;23;20386;-78
2022/01/03 08:09:44;;;;;;;52.15;35.33;;;0.10;91.40;;;;;;6068169;23;20385;-79
2022/01/03 08:12:13;;;;;;;47.67;33.30;;;0.20;91.10;;;;;;6068987;23;20377;-78
2022/01/03 08:14:40;;;;;;;50.15;35.03;;;0.40;90.90;;;;;;6090855;23;20396;-78
2022/01/03 08:17:07;;;;;;;54.30;40.85;;;0.50;90.40;;;;;;6093850;23;20760;-79
2022/01/03 08:19:34;;;;;;;53.25;38.78;;;0.60;90.40;;;;;;6068659;23;20386;-77
2022/01/03 08:22:01;;;;;;;57.08;40.83;;;0.70;90.50;;;;;;6090573;23;20386;-79
2022/01/03 08:24:28;;;;;;;52.53;37.17;;;0.80;90.60;;;;;;6068921;23;20866;-77
2022/01/03 08:26:56;;;;;;;53.92;38.30;;;0.90;90.60;;;;;;6067221;23;20442;-78
2022/01/03 08:29:23;;;;;;;56.80;40.50;;;0.90;90.60;;;;;;6067782;23;20385;-77
2022/01/03 08:31:51;;;;;;;57.70;41.33;;;1.00;90.60;;;;;;6067409;23;20389;-79
2022/01/03 08:34:18;;;;;;;62.30;44.95;;;1.10;90.40;;;;;;6069161;23;20385;-80
2022/01/03 08:36:44;;;;;;;84.47;58.80;;;1.20;90.60;;;;;;6092338;23;20775;-80
2022/01/03 08:39:11;;;;;;;74.22;50.33;;;1.30;90.60;;;;;;6068981;23;20381;-80
2022/01/03 08:41:39;;;;;;;52.83;38.83;;;1.40;90.60;;;;;;6068037;23;20381;-79
2022/01/03 08:44:07;;;;;;;45.00;33.65;;;1.50;90.80;;;;;;6068728;23;20381;-80
2022/01/03 08:46:34;;;;;;;46.97;33.60;;;1.50;90.80;;;;;;6067274;23;20374;-80
2022/01/03 08:49:01;;;;;;;44.13;32.75;;;1.70;90.70;;;;;;6086640;23;20371;-79
2022/01/03 08:51:28;;;;;;;50.90;37.30;;;1.80;90.70;;;;;;6097406;23;20387;-77
2022/01/03 08:53:55;;;;;;;61.72;44.30;;;1.90;90.60;;;;;;6096348;23;20856;-79
2022/01/03 08:56:22;;;;;;;53.20;39.38;;;1.90;90.60;;;;;;6097295;23;20384;-79
2022/01/03 08:58:53;;;;;;;54.85;41.40;;;2.00;90.60;;;;;;6096462;23;20380;-79
2022/01/03 09:01:20;;;;;;;61.28;44.35;;;2.10;90.60;;;;;;6097247;23;20391;-78
2022/01/03 09:03:50;;;;;;;60.30;45.00;;;2.20;90.60;;;;;;6095438;23;20478;-77
2022/01/03 09:06:18;;;;;;;61.47;44.67;;;2.30;90.60;;;;;;6097246;23;20379;-77
2022/01/03 09:08:47;;;;;;;66.65;49.03;;;2.40;90.60;;;;;;6096772;23;20435;-79
2022/01/03 09:11:14;;;;;;;60.08;45.88;;;2.50;90.40;;;;;;6096719;23;20376;-77
2022/01/03 09:13:42;;;;;;;59.33;43.67;;;2.70;90.50;;;;;;6099202;23;20421;-80
2022/01/03 09:16:09;;;;;;;57.45;43.33;;;2.80;90.40;;;;;;6097808;23;20877;-80
2022/01/03 09:18:38;;;;;;;54.50;40.00;;;2.90;90.30;;;;;;6096969;23;20379;-78
2022/01/03 09:21:07;;;;;;;54.10;40.25;;;3.10;90.30;;;;;;6097244;23;20443;-80
2022/01/03 09:23:42;;;;;;;54.22;40.75;;;3.20;90.20;;;;;;6121633;23;20403;-80
2022/01/03 09:28:56;;;;;;;56.42;43.70;;;3.40;90.00;;;;;;6121551;23;25086;-78
2022/01/03 09:31:30;;;;;;;59.08;44.10;;;3.50;89.80;;;;;;6098241;23;20718;-81
2022/01/03 09:34:04;;;;;;;55.45;40.80;;;3.60;89.50;;;;;;6096144;23;20398;-80
2022/01/03 09:36:32;;;;;;;55.80;40.65;;;3.70;88.80;;;;;;6073729;23;20397;-78
2022/01/03 09:39:00;;;;;;;54.13;39.22;;;3.80;89.90;;;;;;6072644;23;20376;-80
2022/01/03 09:41:28;;;;;;;55.78;40.00;;;3.90;89.20;;;;;;6097762;23;20384;-80
2022/01/03 09:44:00;;;;;;;50.05;37.75;;;4.00;89.00;;;;;;6096089;23;20372;-80
2022/01/03 09:46:49;;;;;;;54.85;40.30;;;4.10;89.10;;;;;;6099420;23;20379;-81
2022/01/03 09:49:17;;;;;;;55.90;41.53;;;4.30;88.70;;;;;;6098598;23;20495;-80
2022/01/03 09:51:45;;;;;;;53.72;39.55;;;4.50;88.40;;;;;;6099520;23;20376;-80
2022/01/03 09:54:15;;;;;;;48.97;36.72;;;4.50;87.70;;;;;;6098599;23;20456;-77
2022/01/03 09:56:45;;;;;;;48.55;37.22;;;4.60;87.50;;;;;;6124828;23;20402;-81
2022/01/03 09:59:13;;;;;;;70.53;54.13;;;4.70;87.50;;;;;;6123192;23;27624;-79
2022/01/03 10:01:42;;;;;;;56.17;43.70;;;4.80;87.20;;;;;;6099441;23;20394;-80
2022/01/03 10:04:12;;;;;;;53.25;41.55;;;4.90;87.20;;;;;;6098946;23;20447;-80
2022/01/03 10:06:39;;;;;;;50.83;38.15;;;5.00;86.90;;;;;;6124930;23;20379;-79
2022/01/03 10:09:07;;;;;;;44.83;35.42;;;5.00;86.70;;;;;;6097537;23;20379;-80
2022/01/03 10:11:33;;;;;;;50.05;37.35;;;5.10;86.90;;;;;;6098860;23;20376;-77
2022/01/03 10:14:00;;;;;;;49.85;35.80;;;5.20;86.80;;;;;;6097932;23;20431;-77
2022/01/03 10:16:28;;;;;;;49.75;35.80;;;5.20;86.80;;;;;;6123906;23;20442;-81
2022/01/03 10:19:12;;;;;;;48.78;35.53;;;5.30;86.80;;;;;;6101234;23;20384;-81
2022/01/03 10:21:46;;;;;;;48.00;35.72;;;5.30;87.10;;;;;;6098913;23;20884;-78
2022/01/03 10:24:15;;;;;;;43.38;33.42;;;5.30;86.80;;;;;;6097552;23;21374;-80
2022/01/03 10:26:52;;;;;;;44.88;32.83;;;5.30;87.30;;;;;;6074998;23;20738;-79
2022/01/03 10:29:20;;;;;;;42.10;30.40;;;5.40;87.40;;;;;;6097930;23;20882;-80
2022/01/03 10:31:50;;;;;;;40.80;30.20;;;5.50;87.20;;;;;;6098670;23;20868;-81
2022/01/03 10:34:20;;;;;;;36.03;28.67;;;5.60;86.80;;;;;;6096965;23;20431;-80
2022/01/03 10:36:48;;;;;;;37.85;29.13;;;5.70;86.80;;;;;;6098749;23;20853;-78
2022/01/03 10:39:24;;;;;;;38.33;28.67;;;5.80;86.70;;;;;;6098068;23;20456;-78
2022/01/03 10:41:54;;;;;;;37.22;28.48;;;6.00;85.20;;;;;;6124254;23;20849;-80
2022/01/03 10:44:37;;;;;;;38.53;29.88;;;6.20;85.00;;;;;;6098459;23;20382;-79
2022/01/03 10:47:07;;;;;;;41.33;31.20;;;6.40;84.50;;;;;;6097872;23;20383;-80
2022/01/03 10:49:36;;;;;;;42.08;32.53;;;6.50;84.20;;;;;;6099660;23;20381;-79
2022/01/03 10:52:17;;;;;;;40.90;31.08;;;6.70;83.60;;;;;;6068453;23;20890;-78
2022/01/03 10:55:07;;;;;;;42.47;32.20;;;6.90;81.70;;;;;;6069875;23;20444;-79
2022/01/03 10:58:04;;;;;;;42.40;31.98;;;7.10;81.10;;;;;;6068353;23;20366;-81
2022/01/03 11:00:40;;;;;;;38.80;29.42;;;7.30;80.90;;;;;;6046491;23;20376;-80
2022/01/03 11:03:40;;;;;;;42.15;31.02;;;7.40;79.70;;;;;;6069476;23;20688;-79
2022/01/03 11:06:13;;;;;;;40.55;29.08;;;7.60;79.40;;;;;;6093019;23;20380;-80
2022/01/03 11:11:43;;;;;;;43.17;32.88;;;7.90;77.20;;;;;;6094358;23;20425;-79
2022/01/03 11:14:42;;;;;;;38.97;29.63;;;8.10;77.00;;;;;;6047033;23;20484;-80
2022/01/03 11:17:29;;;;;;;45.90;33.03;;;8.20;76.90;;;;;;6069145;23;20412;-78
2022/01/03 11:19:59;;;;;;;42.90;30.35;;;8.40;75.00;;;;;;6068790;23;20382;-78
2022/01/03 11:22:48;;;;;;;34.50;26.33;;;8.50;73.80;;;;;;6069336;23;20858;-81
2022/01/03 11:25:27;;;;;;;39.88;30.42;;;8.70;73.00;;;;;;6068699;23;20865;-81
2022/01/03 11:27:55;;;;;;;44.22;34.72;;;8.70;71.90;;;;;;6068724;23;20378;-78
2022/01/03 11:30:22;;;;;;;47.78;35.03;;;8.70;73.00;;;;;;6069263;23;20862;-79
2022/01/03 11:32:50;;;;;;;48.88;37.47;;;8.80;73.10;;;;;;6069198;23;20377;-78
2022/01/03 11:35:18;;;;;;;62.17;44.15;;;9.00;72.10;;;;;;6068430;23;20369;-80
2022/01/03 11:37:47;;;;;;;52.65;40.30;;;9.20;71.40;;;;;;6069167;23;20432;-80
2022/01/03 11:40:16;;;;;;;52.97;39.38;;;9.30;71.00;;;;;;6068636;23;20743;-80
2022/01/03 11:42:44;;;;;;;43.97;35.47;;;9.40;70.40;;;;;;6068976;23;20385;-81
2022/01/03 11:45:12;;;;;;;58.05;44.05;;;9.50;70.50;;;;;;6068232;23;20445;-81
2022/01/03 11:47:40;;;;;;;64.97;49.08;;;9.50;70.30;;;;;;6068175;23;20378;-78
2022/01/03 11:50:08;;;;;;;65.25;50.25;;;9.60;71.80;;;;;;6091963;23;20384;-81
2022/01/03 11:52:41;;;;;;;61.70;46.35;;;9.70;72.40;;;;;;6069552;23;20386;-80
2022/01/03 11:55:10;;;;;;;53.95;42.35;;;9.80;72.40;;;;;;6068307;23;20472;-81
2022/01/03 12:03:39;;;;;;;51.35;40.15;;;9.80;71.90;;;;;;6092938;23;20378;-82
2022/01/03 12:06:09;;;;;;;49.33;40.15;;;9.60;71.90;;;;;;6068779;23;20385;-78
2022/01/03 12:08:40;;;;;;;55.03;42.15;;;9.40;72.70;;;;;;6094407;23;20377;-80
2022/01/03 12:11:19;;;;;;;56.47;43.10;;;9.30;73.10;;;;;;6069399;23;20388;-80
2022/01/03 12:13:54;;;;;;;53.50;41.92;;;9.10;73.70;;;;;;6069015;23;20369;-81
2022/01/03 12:16:47;;;;;;;53.92;41.03;;;9.00;74.10;;;;;;6069158;23;20389;-81
2022/01/03 12:19:30;;;;;;;50.90;41.20;;;8.90;74.50;;;;;;6065387;23;20464;-81
2022/01/03 12:22:00;;;;;;;52.22;40.25;;;8.70;75.00;;;;;;6067949;23;20881;-81
2022/01/03 12:24:27;;;;;;;51.47;41.97;;;8.70;75.70;;;;;;6068983;23;20460;-81
2022/01/03 12:27:10;;;;;;;61.35;45.53;;;8.70;76.00;;;;;;6068056;23;20448;-80
2022/01/03 12:29:57;;;;;;;60.88;45.70;;;8.80;76.00;;;;;;6094101;23;20389;-80
2022/01/03 12:32:35;;;;;;;55.70;42.60;;;8.90;75.80;;;;;;6092480;23;20377;-81
2022/01/03 12:35:17;;;;;;;51.67;40.45;;;9.00;75.80;;;;;;6067842;23;20404;-78
2022/01/03 12:38:09;;;;;;;50.58;40.17;;;9.10;75.90;;;;;;6094159;23;20859;-79
2022/01/03 12:40:48;;;;;;;50.50;40.03;;;9.00;76.10;;;;;;6067414;23;20373;-81
2022/01/03 12:43:17;;;;;;;49.25;39.85;;;9.00;76.30;;;;;;6068116;23;20841;-79
2022/01/03 12:45:44;;;;;;;46.17;39.33;;;8.90;76.00;;;;;;6069673;23;20396;-79
2022/01/03 12:48:11;;;;;;;51.05;38.90;;;9.00;76.30;;;;;;6076881;23;20506;-79
2022/01/03 12:50:59;;;;;;;48.90;38.25;;;8.90;76.20;;;;;;6097246;23;20372;-80
2022/01/03 12:53:26;;;;;;;49.00;37.70;;;8.80;76.00;;;;;;6081965;23;20372;-79
2022/01/03 12:56:02;;;;;;;47.50;38.07;;;8.80;76.10;;;;;;6097171;23;20435;-79
2022/01/03 12:58:29;;;;;;;49.72;37.70;;;8.80;76.20;;;;;;6097545;23;20391;-80
2022/01/03 13:01:05;;;;;;;49.28;37.63;;;8.90;76.00;;;;;;6097647;23;20737;-78
2022/01/03 13:03:51;;;;;;;50.50;37.92;;;8.90;76.00;;;;;;6094350;23;20927;-80
2022/01/03 13:06:25;;;;;;;49.28;37.78;;;8.90;76.00;;;;;;6096829;23;20383;-80